sensor_id;sensor_type;location;lat;lon;timestamp;pressure;altitude;pressure_sealevel;temperature;humidity
61357;BME280;47227;46.752;23.576;2023-02-11T00:00:56;98209.27;;;-7.34;62.91
61357;BME280;47227;46.752;23.576;2023-02-11T00:04:14;98201.52;;;-7.39;62.86
61357;BME280;47227;46.752;23.576;2023-02-11T00:07:09;98206.50;;;-7.42;62.99
61357;BME280;47227;46.752;23.576;2023-02-11T00:09:41;98205.15;;;-7.43;62.70
61357;BME280;47227;46.752;23.576;2023-02-11T00:12:21;98209.32;;;-7.44;62.76
61357;BME280;47227;46.752;23.576;2023-02-11T00:14:57;98210.50;;;-7.44;62.85
61357;BME280;47227;46.752;23.576;2023-02-11T00:17:35;98209.21;;;-7.45;62.90
61357;BME280;47227;46.752;23.576;2023-02-11T00:20:05;98207.89;;;-7.46;63.09
61357;BME280;47227;46.752;23.576;2023-02-11T00:22:36;98207.09;;;-7.47;63.35
61357;BME280;47227;46.752;23.576;2023-02-11T00:25:12;98207.60;;;-7.50;63.31
61357;BME280;47227;46.752;23.576;2023-02-11T00:27:55;98207.59;;;-7.53;63.95
61357;BME280;47227;46.752;23.576;2023-02-11T00:30:33;98213.22;;;-7.56;63.06
61357;BME280;47227;46.752;23.576;2023-02-11T00:33:02;98207.77;;;-7.59;62.97
61357;BME280;47227;46.752;23.576;2023-02-11T00:35:54;98206.86;;;-7.61;63.37
61357;BME280;47227;46.752;23.576;2023-02-11T00:38:22;98206.21;;;-7.65;63.31
61357;BME280;47227;46.752;23.576;2023-02-11T00:40:54;98203.61;;;-7.67;63.52
61357;BME280;47227;46.752;23.576;2023-02-11T00:43:28;98202.57;;;-7.69;63.73
61357;BME280;47227;46.752;23.576;2023-02-11T00:45:58;98205.36;;;-7.71;63.49
61357;BME280;47227;46.752;23.576;2023-02-11T00:48:47;98200.73;;;-7.73;63.48
61357;BME280;47227;46.752;23.576;2023-02-11T00:51:27;98196.38;;;-7.74;63.14
61357;BME280;47227;46.752;23.576;2023-02-11T00:54:05;98193.92;;;-7.76;62.96
61357;BME280;47227;46.752;23.576;2023-02-11T00:56:34;98193.27;;;-7.76;63.18
61357;BME280;47227;46.752;23.576;2023-02-11T00:59:04;98191.39;;;-7.76;63.01
61357;BME280;47227;46.752;23.576;2023-02-11T01:01:34;98188.86;;;-7.76;62.94
61357;BME280;47227;46.752;23.576;2023-02-11T01:04:42;98179.65;;;-7.78;63.42
61357;BME280;47227;46.752;23.576;2023-02-11T01:07:50;98173.92;;;-7.79;63.00
61357;BME280;47227;46.752;23.576;2023-02-11T01:10:33;98170.81;;;-7.82;63.19
61357;BME280;47227;46.752;23.576;2023-02-11T01:13:21;98165.17;;;-7.84;63.04
61357;BME280;47227;46.752;23.576;2023-02-11T01:15:55;98159.97;;;-7.85;63.01
61357;BME280;47227;46.752;23.576;2023-02-11T01:18:46;98157.77;;;-7.85;63.48
61357;BME280;47227;46.752;23.576;2023-02-11T01:21:34;98151.78;;;-7.87;63.58
61357;BME280;47227;46.752;23.576;2023-02-11T01:24:22;98150.02;;;-7.92;63.38
61357;BME280;47227;46.752;23.576;2023-02-11T01:29:33;98143.03;;;-7.95;63.82
61357;BME280;47227;46.752;23.576;2023-02-11T01:32:04;98140.86;;;-7.96;63.95
61357;BME280;47227;46.752;23.576;2023-02-11T01:34:33;98138.17;;;-7.96;63.85
61357;BME280;47227;46.752;23.576;2023-02-11T01:37:02;98134.61;;;-7.99;64.10
61357;BME280;47227;46.752;23.576;2023-02-11T01:39:33;98133.61;;;-8.02;63.65
61357;BME280;47227;46.752;23.576;2023-02-11T01:42:01;98129.46;;;-8.07;64.29
61357;BME280;47227;46.752;23.576;2023-02-11T01:44:34;98127.92;;;-8.10;63.62
61357;BME280;47227;46.752;23.576;2023-02-11T01:47:17;98124.89;;;-8.11;63.98
61357;BME280;47227;46.752;23.576;2023-02-11T01:49:52;98127.11;;;-8.14;64.49
61357;BME280;47227;46.752;23.576;2023-02-11T01:52:29;98129.30;;;-8.16;64.31
61357;BME280;47227;46.752;23.576;2023-02-11T01:55:05;98123.81;;;-8.19;64.21
61357;BME280;47227;46.752;23.576;2023-02-11T01:57:48;98122.44;;;-8.21;63.87
61357;BME280;47227;46.752;23.576;2023-02-11T02:00:23;98125.61;;;-8.23;63.85
61357;BME280;47227;46.752;23.576;2023-02-11T02:03:04;98124.11;;;-8.24;63.62
61357;BME280;47227;46.752;23.576;2023-02-11T02:05:41;98123.19;;;-8.26;63.64
61357;BME280;47227;46.752;23.576;2023-02-11T02:08:22;98122.42;;;-8.28;63.60
61357;BME280;47227;46.752;23.576;2023-02-11T02:11:21;98121.73;;;-8.27;63.56
61357;BME280;47227;46.752;23.576;2023-02-11T02:14:10;98113.16;;;-8.29;63.43
61357;BME280;47227;46.752;23.576;2023-02-11T02:16:59;98111.61;;;-8.31;63.28
61357;BME280;47227;46.752;23.576;2023-02-11T02:20:11;98105.53;;;-8.35;63.23
61357;BME280;47227;46.752;23.576;2023-02-11T02:23:10;98098.79;;;-8.36;62.80
61357;BME280;47227;46.752;23.576;2023-02-11T02:29:18;98098.72;;;-8.38;62.89
61357;BME280;47227;46.752;23.576;2023-02-11T02:35:33;98093.25;;;-8.40;62.86
61357;BME280;47227;46.752;23.576;2023-02-11T02:38:26;98089.79;;;-8.41;63.21
61357;BME280;47227;46.752;23.576;2023-02-11T02:41:36;98089.58;;;-8.44;63.02
61357;BME280;47227;46.752;23.576;2023-02-11T02:44:29;98082.40;;;-8.46;63.06
61357;BME280;47227;46.752;23.576;2023-02-11T02:47:43;98079.45;;;-8.48;62.88
61357;BME280;47227;46.752;23.576;2023-02-11T02:50:34;98072.83;;;-8.48;63.06
61357;BME280;47227;46.752;23.576;2023-02-11T02:54:20;98077.80;;;-8.49;63.11
61357;BME280;47227;46.752;23.576;2023-02-11T02:59:51;98078.34;;;-8.52;63.34
61357;BME280;47227;46.752;23.576;2023-02-11T03:02:30;98078.88;;;-8.56;62.96
61357;BME280;47227;46.752;23.576;2023-02-11T03:05:15;98082.69;;;-8.60;63.07
61357;BME280;47227;46.752;23.576;2023-02-11T03:10:37;98077.03;;;-8.69;63.08
61357;BME280;47227;46.752;23.576;2023-02-11T03:13:08;98074.83;;;-8.72;63.00
61357;BME280;47227;46.752;23.576;2023-02-11T03:15:40;98075.44;;;-8.74;62.73
61357;BME280;47227;46.752;23.576;2023-02-11T03:18:12;98077.95;;;-8.77;63.20
61357;BME280;47227;46.752;23.576;2023-02-11T03:20:44;98082.67;;;-8.79;63.41
61357;BME280;47227;46.752;23.576;2023-02-11T03:23:25;98080.50;;;-8.80;63.13
61357;BME280;47227;46.752;23.576;2023-02-11T03:26:04;98081.83;;;-8.79;63.27
61357;BME280;47227;46.752;23.576;2023-02-11T03:28:43;98081.91;;;-8.78;63.30
61357;BME280;47227;46.752;23.576;2023-02-11T03:31:20;98074.73;;;-8.77;63.34
61357;BME280;47227;46.752;23.576;2023-02-11T03:34:01;98072.77;;;-8.75;63.29
61357;BME280;47227;46.752;23.576;2023-02-11T03:36:36;98073.83;;;-8.72;63.14
61357;BME280;47227;46.752;23.576;2023-02-11T03:39:08;98069.92;;;-8.69;63.09
61357;BME280;47227;46.752;23.576;2023-02-11T03:41:40;98071.80;;;-8.66;63.34
61357;BME280;47227;46.752;23.576;2023-02-11T03:44:10;98072.52;;;-8.64;63.28
61357;BME280;47227;46.752;23.576;2023-02-11T03:46:42;98069.05;;;-8.62;63.39
61357;BME280;47227;46.752;23.576;2023-02-11T03:49:14;98070.71;;;-8.62;63.39
61357;BME280;47227;46.752;23.576;2023-02-11T03:51:45;98073.42;;;-8.62;63.08
61357;BME280;47227;46.752;23.576;2023-02-11T03:54:18;98075.91;;;-8.61;62.99
61357;BME280;47227;46.752;23.576;2023-02-11T03:56:50;98069.01;;;-8.61;63.30
61357;BME280;47227;46.752;23.576;2023-02-11T03:59:19;98068.58;;;-8.63;63.26
61357;BME280;47227;46.752;23.576;2023-02-11T04:01:48;98063.49;;;-8.63;63.28
61357;BME280;47227;46.752;23.576;2023-02-11T04:04:16;98061.45;;;-8.66;62.94
61357;BME280;47227;46.752;23.576;2023-02-11T04:06:45;98059.74;;;-8.69;62.94
61357;BME280;47227;46.752;23.576;2023-02-11T04:09:13;98053.90;;;-8.71;62.79
61357;BME280;47227;46.752;23.576;2023-02-11T04:11:42;98050.71;;;-8.72;63.88
61357;BME280;47227;46.752;23.576;2023-02-11T04:14:10;98045.61;;;-8.71;63.54
61357;BME280;47227;46.752;23.576;2023-02-11T04:16:38;98049.57;;;-8.69;63.34
61357;BME280;47227;46.752;23.576;2023-02-11T04:19:07;98047.77;;;-8.67;63.23
61357;BME280;47227;46.752;23.576;2023-02-11T04:21:35;98045.58;;;-8.67;63.28
61357;BME280;47227;46.752;23.576;2023-02-11T04:24:04;98043.92;;;-8.68;63.07
61357;BME280;47227;46.752;23.576;2023-02-11T04:26:32;98040.02;;;-8.67;62.90
61357;BME280;47227;46.752;23.576;2023-02-11T04:29:02;98034.64;;;-8.69;62.79
61357;BME280;47227;46.752;23.576;2023-02-11T04:31:30;98031.86;;;-8.68;63.18
61357;BME280;47227;46.752;23.576;2023-02-11T04:33:58;98031.70;;;-8.68;62.96
61357;BME280;47227;46.752;23.576;2023-02-11T04:36:26;98031.27;;;-8.69;62.97
61357;BME280;47227;46.752;23.576;2023-02-11T04:38:57;98029.98;;;-8.70;62.92
61357;BME280;47227;46.752;23.576;2023-02-11T04:41:25;98030.73;;;-8.72;62.98
61357;BME280;47227;46.752;23.576;2023-02-11T04:43:53;98023.66;;;-8.73;63.07
61357;BME280;47227;46.752;23.576;2023-02-11T04:46:21;98024.42;;;-8.75;63.09
61357;BME280;47227;46.752;23.576;2023-02-11T04:48:49;98025.27;;;-8.74;63.69
61357;BME280;47227;46.752;23.576;2023-02-11T04:51:18;98020.83;;;-8.74;63.33
61357;BME280;47227;46.752;23.576;2023-02-11T04:53:46;98017.61;;;-8.74;63.17
61357;BME280;47227;46.752;23.576;2023-02-11T04:56:14;98011.75;;;-8.72;63.25
61357;BME280;47227;46.752;23.576;2023-02-11T04:58:42;98008.43;;;-8.70;63.50
61357;BME280;47227;46.752;23.576;2023-02-11T05:01:13;98009.83;;;-8.71;64.01
61357;BME280;47227;46.752;23.576;2023-02-11T05:03:42;98015.25;;;-8.74;63.94
61357;BME280;47227;46.752;23.576;2023-02-11T05:06:10;98021.23;;;-8.78;64.81
61357;BME280;47227;46.752;23.576;2023-02-11T05:08:38;98022.27;;;-8.78;63.97
61357;BME280;47227;46.752;23.576;2023-02-11T05:11:16;98022.73;;;-8.77;63.24
61357;BME280;47227;46.752;23.576;2023-02-11T05:13:44;98027.12;;;-8.77;63.64
61357;BME280;47227;46.752;23.576;2023-02-11T05:16:13;98029.17;;;-8.78;63.69
61357;BME280;47227;46.752;23.576;2023-02-11T05:18:42;98035.54;;;-8.76;63.43
61357;BME280;47227;46.752;23.576;2023-02-11T05:21:13;98034.69;;;-8.76;63.25
61357;BME280;47227;46.752;23.576;2023-02-11T05:23:44;98037.58;;;-8.76;63.14
61357;BME280;47227;46.752;23.576;2023-02-11T05:26:13;98036.60;;;-8.77;62.90
61357;BME280;47227;46.752;23.576;2023-02-11T05:28:41;98034.61;;;-8.78;62.94
61357;BME280;47227;46.752;23.576;2023-02-11T05:31:10;98031.88;;;-8.77;62.99
61357;BME280;47227;46.752;23.576;2023-02-11T05:33:39;98032.80;;;-8.76;62.99
61357;BME280;47227;46.752;23.576;2023-02-11T05:36:11;98028.84;;;-8.72;63.04
61357;BME280;47227;46.752;23.576;2023-02-11T05:38:40;98029.36;;;-8.68;62.67
61357;BME280;47227;46.752;23.576;2023-02-11T05:41:10;98022.21;;;-8.68;62.96
61357;BME280;47227;46.752;23.576;2023-02-11T05:43:38;98021.02;;;-8.68;62.77
61357;BME280;47227;46.752;23.576;2023-02-11T05:46:14;98019.22;;;-8.66;62.69
61357;BME280;47227;46.752;23.576;2023-02-11T05:48:42;98018.34;;;-8.68;63.14
61357;BME280;47227;46.752;23.576;2023-02-11T05:51:14;98018.39;;;-8.69;62.96
61357;BME280;47227;46.752;23.576;2023-02-11T05:53:42;98010.13;;;-8.70;63.05
61357;BME280;47227;46.752;23.576;2023-02-11T05:56:11;98009.21;;;-8.66;62.82
61357;BME280;47227;46.752;23.576;2023-02-11T05:58:39;98012.66;;;-8.61;63.07
61357;BME280;47227;46.752;23.576;2023-02-11T06:01:08;98011.60;;;-8.57;63.05
61357;BME280;47227;46.752;23.576;2023-02-11T06:03:36;98014.33;;;-8.54;62.81
61357;BME280;47227;46.752;23.576;2023-02-11T06:06:10;98012.69;;;-8.49;62.82
61357;BME280;47227;46.752;23.576;2023-02-11T06:08:39;98008.78;;;-8.49;62.19
61357;BME280;47227;46.752;23.576;2023-02-11T06:11:08;98010.94;;;-8.48;62.25
61357;BME280;47227;46.752;23.576;2023-02-11T06:13:35;98010.22;;;-8.47;62.12
61357;BME280;47227;46.752;23.576;2023-02-11T06:16:04;98009.94;;;-8.45;61.79
61357;BME280;47227;46.752;23.576;2023-02-11T06:18:32;98011.13;;;-8.42;62.47
61357;BME280;47227;46.752;23.576;2023-02-11T06:23:51;98010.86;;;-8.32;62.39
61357;BME280;47227;46.752;23.576;2023-02-11T06:26:22;98012.91;;;-8.29;62.19
61357;BME280;47227;46.752;23.576;2023-02-11T06:28:50;98012.58;;;-8.29;61.79
61357;BME280;47227;46.752;23.576;2023-02-11T06:31:18;98011.92;;;-8.30;61.99
61357;BME280;47227;46.752;23.576;2023-02-11T06:33:46;98012.17;;;-8.34;61.85
61357;BME280;47227;46.752;23.576;2023-02-11T06:36:17;98014.02;;;-8.31;61.21
61357;BME280;47227;46.752;23.576;2023-02-11T06:38:46;98012.54;;;-8.26;61.56
61357;BME280;47227;46.752;23.576;2023-02-11T06:41:16;98012.89;;;-8.19;61.53
61357;BME280;47227;46.752;23.576;2023-02-11T06:43:47;98010.02;;;-8.17;61.53
61357;BME280;47227;46.752;23.576;2023-02-11T06:46:15;98006.86;;;-8.12;61.35
61357;BME280;47227;46.752;23.576;2023-02-11T06:48:43;98007.76;;;-8.04;61.52
61357;BME280;47227;46.752;23.576;2023-02-11T06:51:12;98004.08;;;-7.99;60.96
61357;BME280;47227;46.752;23.576;2023-02-11T06:53:43;98008.59;;;-7.98;60.96
61357;BME280;47227;46.752;23.576;2023-02-11T06:56:18;98006.28;;;-7.96;61.45
61357;BME280;47227;46.752;23.576;2023-02-11T06:58:46;98002.42;;;-7.94;61.41
61357;BME280;47227;46.752;23.576;2023-02-11T07:01:15;98003.69;;;-7.95;61.87
61357;BME280;47227;46.752;23.576;2023-02-11T07:03:43;98000.84;;;-8.05;62.27
61357;BME280;47227;46.752;23.576;2023-02-11T07:06:15;97999.80;;;-8.14;61.97
61357;BME280;47227;46.752;23.576;2023-02-11T07:08:45;97998.21;;;-8.12;61.97
61357;BME280;47227;46.752;23.576;2023-02-11T07:11:16;97999.64;;;-8.11;61.99
61357;BME280;47227;46.752;23.576;2023-02-11T07:13:46;98002.21;;;-8.08;62.03
61357;BME280;47227;46.752;23.576;2023-02-11T07:16:16;98001.48;;;-8.04;61.90
61357;BME280;47227;46.752;23.576;2023-02-11T07:18:45;98010.23;;;-8.09;62.70
61357;BME280;47227;46.752;23.576;2023-02-11T07:21:17;98014.19;;;-8.01;62.33
61357;BME280;47227;46.752;23.576;2023-02-11T07:23:46;98009.53;;;-7.94;62.58
61357;BME280;47227;46.752;23.576;2023-02-11T07:26:18;98008.70;;;-7.86;62.93
61357;BME280;47227;46.752;23.576;2023-02-11T07:28:48;98011.23;;;-7.73;62.69
61357;BME280;47227;46.752;23.576;2023-02-11T07:31:19;98015.30;;;-7.62;62.26
61357;BME280;47227;46.752;23.576;2023-02-11T07:33:50;98018.80;;;-7.49;61.39
61357;BME280;47227;46.752;23.576;2023-02-11T07:36:19;98022.54;;;-7.38;61.37
61357;BME280;47227;46.752;23.576;2023-02-11T07:38:47;98015.73;;;-7.26;61.44
61357;BME280;47227;46.752;23.576;2023-02-11T07:41:18;98016.11;;;-7.19;60.83
61357;BME280;47227;46.752;23.576;2023-02-11T07:43:46;98010.97;;;-7.09;61.06
61357;BME280;47227;46.752;23.576;2023-02-11T07:46:19;98011.17;;;-6.99;60.47
61357;BME280;47227;46.752;23.576;2023-02-11T07:48:47;98005.33;;;-6.84;61.03
61357;BME280;47227;46.752;23.576;2023-02-11T07:51:18;97997.84;;;-6.70;60.82
61357;BME280;47227;46.752;23.576;2023-02-11T07:53:47;98005.13;;;-6.57;60.95
61357;BME280;47227;46.752;23.576;2023-02-11T07:56:17;98002.89;;;-6.45;60.71
61357;BME280;47227;46.752;23.576;2023-02-11T07:58:46;98008.09;;;-6.36;60.48
61357;BME280;47227;46.752;23.576;2023-02-11T08:01:21;97999.52;;;-6.30;60.06
61357;BME280;47227;46.752;23.576;2023-02-11T08:03:51;97998.29;;;-6.24;60.13
61357;BME280;47227;46.752;23.576;2023-02-11T08:06:22;98000.16;;;-6.19;59.84
61357;BME280;47227;46.752;23.576;2023-02-11T08:08:51;97994.09;;;-6.17;59.55
61357;BME280;47227;46.752;23.576;2023-02-11T08:11:22;97994.14;;;-6.18;59.12
61357;BME280;47227;46.752;23.576;2023-02-11T08:13:51;97990.91;;;-6.15;59.36
61357;BME280;47227;46.752;23.576;2023-02-11T08:16:26;97986.95;;;-6.12;59.18
61357;BME280;47227;46.752;23.576;2023-02-11T08:18:56;97985.84;;;-6.05;59.20
61357;BME280;47227;46.752;23.576;2023-02-11T08:21:25;97977.17;;;-6.03;59.01
61357;BME280;47227;46.752;23.576;2023-02-11T08:23:53;97968.63;;;-5.97;58.87
61357;BME280;47227;46.752;23.576;2023-02-11T08:26:24;97961.25;;;-5.87;59.33
61357;BME280;47227;46.752;23.576;2023-02-11T08:28:54;97956.91;;;-5.75;59.17
61357;BME280;47227;46.752;23.576;2023-02-11T08:31:28;97955.33;;;-5.64;58.97
61357;BME280;47227;46.752;23.576;2023-02-11T08:33:56;97959.36;;;-5.51;59.21
61357;BME280;47227;46.752;23.576;2023-02-11T08:36:27;97959.98;;;-5.43;59.10
61357;BME280;47227;46.752;23.576;2023-02-11T08:38:57;97954.97;;;-5.44;59.83
61357;BME280;47227;46.752;23.576;2023-02-11T08:41:46;97952.69;;;-5.29;59.62
61357;BME280;47227;46.752;23.576;2023-02-11T08:44:17;97949.75;;;-5.11;59.16
61357;BME280;47227;46.752;23.576;2023-02-11T08:46:45;97945.08;;;-4.93;59.16
61357;BME280;47227;46.752;23.576;2023-02-11T08:49:14;97947.46;;;-4.74;59.17
61357;BME280;47227;46.752;23.576;2023-02-11T08:51:47;97944.60;;;-4.53;59.26
61357;BME280;47227;46.752;23.576;2023-02-11T08:54:21;97943.05;;;-4.34;58.99
61357;BME280;47227;46.752;23.576;2023-02-11T08:56:55;97938.10;;;-4.24;58.78
61357;BME280;47227;46.752;23.576;2023-02-11T08:59:43;97934.20;;;-4.11;58.70
61357;BME280;47227;46.752;23.576;2023-02-11T09:02:18;97937.51;;;-3.96;58.80
61357;BME280;47227;46.752;23.576;2023-02-11T09:04:47;97936.05;;;-3.79;58.38
61357;BME280;47227;46.752;23.576;2023-02-11T09:07:29;97933.65;;;-3.63;57.86
61357;BME280;47227;46.752;23.576;2023-02-11T09:10:17;97920.94;;;-3.46;57.04
61357;BME280;47227;46.752;23.576;2023-02-11T09:13:05;97910.64;;;-3.28;57.51
61357;BME280;47227;46.752;23.576;2023-02-11T09:15:37;97907.40;;;-3.07;58.02
61357;BME280;47227;46.752;23.576;2023-02-11T09:18:10;97906.64;;;-2.88;57.12
61357;BME280;47227;46.752;23.576;2023-02-11T09:21:06;97915.09;;;-2.66;57.19
61357;BME280;47227;46.752;23.576;2023-02-11T09:23:35;97914.10;;;-2.66;55.10
61357;BME280;47227;46.752;23.576;2023-02-11T09:26:06;97912.35;;;-2.80;55.11
61357;BME280;47227;46.752;23.576;2023-02-11T09:28:47;97909.73;;;-2.88;55.85
61357;BME280;47227;46.752;23.576;2023-02-11T09:31:19;97911.51;;;-3.07;56.47
61357;BME280;47227;46.752;23.576;2023-02-11T09:33:52;97911.27;;;-2.95;56.61
61357;BME280;47227;46.752;23.576;2023-02-11T09:36:30;97908.17;;;-2.79;56.71
61357;BME280;47227;46.752;23.576;2023-02-11T09:39:36;97904.23;;;-2.54;56.80
61357;BME280;47227;46.752;23.576;2023-02-11T09:42:39;97904.69;;;-2.30;56.48
61357;BME280;47227;46.752;23.576;2023-02-11T09:45:25;97903.58;;;-2.12;55.58
61357;BME280;47227;46.752;23.576;2023-02-11T09:48:27;97906.16;;;-2.10;55.16
61357;BME280;47227;46.752;23.576;2023-02-11T09:51:29;97898.21;;;-1.93;55.16
61357;BME280;47227;46.752;23.576;2023-02-11T09:57:10;97896.86;;;-1.57;54.43
61357;BME280;47227;46.752;23.576;2023-02-11T10:00:17;97895.49;;;-1.61;52.60
61357;BME280;47227;46.752;23.576;2023-02-11T10:02:59;97888.23;;;-1.58;53.76
61357;BME280;47227;46.752;23.576;2023-02-11T10:06:15;97889.19;;;-1.69;52.93
61357;BME280;47227;46.752;23.576;2023-02-11T10:09:22;97894.94;;;-1.66;53.11
61357;BME280;47227;46.752;23.576;2023-02-11T10:18:15;97875.89;;;-1.12;51.99
61357;BME280;47227;46.752;23.576;2023-02-11T10:23:59;97863.70;;;-0.81;52.58
61357;BME280;47227;46.752;23.576;2023-02-11T10:26:36;97863.38;;;-0.66;51.93
61357;BME280;47227;46.752;23.576;2023-02-11T10:29:35;97866.70;;;-0.61;50.97
61357;BME280;47227;46.752;23.576;2023-02-11T10:32:28;97870.53;;;-0.59;50.98
61357;BME280;47227;46.752;23.576;2023-02-11T10:35:02;97867.40;;;-0.51;50.35
61357;BME280;47227;46.752;23.576;2023-02-11T10:37:32;97867.59;;;-0.25;50.74
61357;BME280;47227;46.752;23.576;2023-02-11T10:40:01;97865.20;;;-0.14;50.49
61357;BME280;47227;46.752;23.576;2023-02-11T10:42:30;97863.34;;;-0.08;49.59
61357;BME280;47227;46.752;23.576;2023-02-11T10:45:02;97854.07;;;0.01;49.46
61357;BME280;47227;46.752;23.576;2023-02-11T10:47:34;97847.73;;;-0.05;49.40
61357;BME280;47227;46.752;23.576;2023-02-11T10:50:24;97850.48;;;-0.10;49.76
61357;BME280;47227;46.752;23.576;2023-02-11T10:53:17;97839.30;;;0.40;50.21
61357;BME280;47227;46.752;23.576;2023-02-11T10:55:51;97833.40;;;0.98;49.82
61357;BME280;47227;46.752;23.576;2023-02-11T10:58:27;97823.08;;;1.40;48.54
61357;BME280;47227;46.752;23.576;2023-02-11T11:00:57;97819.70;;;1.83;47.73
61357;BME280;47227;46.752;23.576;2023-02-11T11:03:29;97817.73;;;2.18;47.67
61357;BME280;47227;46.752;23.576;2023-02-11T11:06:01;97810.30;;;2.40;46.53
61357;BME280;47227;46.752;23.576;2023-02-11T11:08:47;97801.77;;;2.38;45.68
61357;BME280;47227;46.752;23.576;2023-02-11T11:11:18;97792.90;;;2.32;46.77
61357;BME280;47227;46.752;23.576;2023-02-11T11:13:57;97790.27;;;2.22;46.73
61357;BME280;47227;46.752;23.576;2023-02-11T11:16:30;97789.56;;;2.17;46.62
61357;BME280;47227;46.752;23.576;2023-02-11T11:19:18;97782.52;;;2.10;45.96
61357;BME280;47227;46.752;23.576;2023-02-11T11:21:52;97774.08;;;2.18;46.45
61357;BME280;47227;46.752;23.576;2023-02-11T11:24:25;97772.52;;;2.23;46.49
61357;BME280;47227;46.752;23.576;2023-02-11T11:26:58;97768.27;;;2.21;46.24
61357;BME280;47227;46.752;23.576;2023-02-11T11:29:35;97759.89;;;2.24;46.14
61357;BME280;47227;46.752;23.576;2023-02-11T11:32:10;97756.77;;;2.15;45.75
61357;BME280;47227;46.752;23.576;2023-02-11T11:34:42;97751.20;;;1.97;45.99
61357;BME280;47227;46.752;23.576;2023-02-11T11:37:29;97745.45;;;1.93;46.21
61357;BME280;47227;46.752;23.576;2023-02-11T11:40:02;97739.98;;;1.92;46.35
61357;BME280;47227;46.752;23.576;2023-02-11T11:42:37;97736.98;;;1.86;45.84
61357;BME280;47227;46.752;23.576;2023-02-11T11:45:25;97740.88;;;1.79;46.11
61357;BME280;47227;46.752;23.576;2023-02-11T11:48:00;97740.73;;;1.76;46.70
61357;BME280;47227;46.752;23.576;2023-02-11T11:50:36;97731.36;;;1.56;46.46
61357;BME280;47227;46.752;23.576;2023-02-11T11:53:22;97729.23;;;1.52;46.94
61357;BME280;47227;46.752;23.576;2023-02-11T11:56:11;97728.80;;;1.66;47.26
61357;BME280;47227;46.752;23.576;2023-02-11T11:58:40;97734.21;;;1.72;46.67
61357;BME280;47227;46.752;23.576;2023-02-11T12:04:15;97728.30;;;2.12;46.33
61357;BME280;47227;46.752;23.576;2023-02-11T12:07:10;97721.80;;;2.05;45.86
61357;BME280;47227;46.752;23.576;2023-02-11T12:15:54;97700.10;;;2.71;45.36
61357;BME280;47227;46.752;23.576;2023-02-11T12:21:27;97697.11;;;3.50;44.46
61357;BME280;47227;46.752;23.576;2023-02-11T12:27:12;97677.22;;;3.55;43.30
61357;BME280;47227;46.752;23.576;2023-02-11T12:30:07;97681.83;;;3.68;42.88
61357;BME280;47227;46.752;23.576;2023-02-11T12:35:52;97677.94;;;4.05;42.35
61357;BME280;47227;46.752;23.576;2023-02-11T12:38:38;97676.79;;;3.73;42.31
61357;BME280;47227;46.752;23.576;2023-02-11T12:41:41;97678.30;;;3.45;42.56
61357;BME280;47227;46.752;23.576;2023-02-11T12:44:49;97689.59;;;2.96;43.10
61357;BME280;47227;46.752;23.576;2023-02-11T12:47:30;97683.22;;;3.30;43.14
61357;BME280;47227;46.752;23.576;2023-02-11T12:50:13;97672.84;;;3.22;42.55
61357;BME280;47227;46.752;23.576;2023-02-11T12:53:17;97667.91;;;3.15;43.13
61357;BME280;47227;46.752;23.576;2023-02-11T12:55:56;97666.11;;;3.43;42.63
61357;BME280;47227;46.752;23.576;2023-02-11T12:58:27;97669.98;;;3.96;41.95
61357;BME280;47227;46.752;23.576;2023-02-11T13:01:18;97662.08;;;4.80;41.87
61357;BME280;47227;46.752;23.576;2023-02-11T13:03:54;97657.55;;;5.14;39.47
61357;BME280;47227;46.752;23.576;2023-02-11T13:06:34;97655.36;;;5.18;38.64
61357;BME280;47227;46.752;23.576;2023-02-11T13:09:12;97650.31;;;5.29;38.38
61357;BME280;47227;46.752;23.576;2023-02-11T13:11:49;97649.64;;;5.64;38.32
61357;BME280;47227;46.752;23.576;2023-02-11T13:14:30;97639.14;;;6.06;39.14
61357;BME280;47227;46.752;23.576;2023-02-11T13:17:07;97634.23;;;6.38;37.10
61357;BME280;47227;46.752;23.576;2023-02-11T13:19:47;97632.58;;;6.55;36.82
61357;BME280;47227;46.752;23.576;2023-02-11T13:22:23;97630.79;;;6.48;36.10
61357;BME280;47227;46.752;23.576;2023-02-11T13:25:18;97619.32;;;6.67;36.10
61357;BME280;47227;46.752;23.576;2023-02-11T13:27:58;97613.91;;;6.19;36.89
61357;BME280;47227;46.752;23.576;2023-02-11T13:30:32;97616.73;;;5.81;36.99
61357;BME280;47227;46.752;23.576;2023-02-11T13:33:04;97616.84;;;5.64;37.85
61357;BME280;47227;46.752;23.576;2023-02-11T13:35:46;97614.51;;;5.81;37.80
61357;BME280;47227;46.752;23.576;2023-02-11T13:38:19;97615.00;;;5.91;37.68
61357;BME280;47227;46.752;23.576;2023-02-11T13:41:04;97616.83;;;5.79;38.16
61357;BME280;47227;46.752;23.576;2023-02-11T13:43:35;97620.28;;;5.14;38.88
61357;BME280;47227;46.752;23.576;2023-02-11T13:46:07;97623.92;;;4.68;40.26
61357;BME280;47227;46.752;23.576;2023-02-11T13:48:52;97624.96;;;4.80;40.28
61357;BME280;47227;46.752;23.576;2023-02-11T13:51:36;97621.62;;;5.03;40.16
61357;BME280;47227;46.752;23.576;2023-02-11T13:54:06;97620.19;;;5.03;39.72
61357;BME280;47227;46.752;23.576;2023-02-11T13:56:38;97617.34;;;4.48;40.66
61357;BME280;47227;46.752;23.576;2023-02-11T13:59:42;97618.50;;;3.96;42.10
61357;BME280;47227;46.752;23.576;2023-02-11T14:02:27;97612.36;;;3.68;42.84
61357;BME280;47227;46.752;23.576;2023-02-11T14:05:32;97612.74;;;3.41;43.49
61357;BME280;47227;46.752;23.576;2023-02-11T14:08:16;97611.96;;;3.57;43.30
61357;BME280;47227;46.752;23.576;2023-02-11T14:11:10;97605.33;;;3.45;43.72
61357;BME280;47227;46.752;23.576;2023-02-11T14:14:02;97596.82;;;3.50;43.61
61357;BME280;47227;46.752;23.576;2023-02-11T14:16:31;97590.70;;;3.62;43.11
61357;BME280;47227;46.752;23.576;2023-02-11T14:19:07;97584.43;;;3.58;43.15
61357;BME280;47227;46.752;23.576;2023-02-11T14:21:37;97573.16;;;3.45;43.44
61357;BME280;47227;46.752;23.576;2023-02-11T14:27:22;97566.55;;;3.64;43.47
61357;BME280;47227;46.752;23.576;2023-02-11T14:33:19;97570.09;;;3.34;43.41
61357;BME280;47227;46.752;23.576;2023-02-11T14:36:00;97569.08;;;3.08;43.56
61357;BME280;47227;46.752;23.576;2023-02-11T14:38:48;97561.28;;;2.86;43.81